sensor_id;sensor_type;location;lat;lon;timestamp;pressure;altitude;pressure_sealevel;temperature
45701;BMP280;36277;32.852;-116.998;2023-02-28T00:00:27;100441.41;;;24.14
45701;BMP280;36277;32.852;-116.998;2023-02-28T00:02:54;100442.94;;;24.16
45701;BMP280;36277;32.852;-116.998;2023-02-28T00:05:22;100446.19;;;24.20
45701;BMP280;36277;32.852;-116.998;2023-02-28T00:07:49;100453.59;;;24.19
45701;BMP280;36277;32.852;-116.998;2023-02-28T00:10:21;100455.63;;;24.25
45701;BMP280;36277;32.852;-116.998;2023-02-28T00:12:52;100456.47;;;24.26
45701;BMP280;36277;32.852;-116.998;2023-02-28T00:15:20;100455.63;;;24.25
45701;BMP280;36277;32.852;-116.998;2023-02-28T00:17:48;100459.06;;;24.27
45701;BMP280;36277;32.852;-116.998;2023-02-28T00:20:15;100458.19;;;24.27
45701;BMP280;36277;32.852;-116.998;2023-02-28T00:22:43;100449.34;;;24.31
45701;BMP280;36277;32.852;-116.998;2023-02-28T00:25:13;100453.63;;;24.34
45701;BMP280;36277;32.852;-116.998;2023-02-28T00:27:40;100457.06;;;24.36
45701;BMP280;36277;32.852;-116.998;2023-02-28T00:30:10;100446.50;;;24.39
45701;BMP280;36277;32.852;-116.998;2023-02-28T00:32:37;100449.25;;;24.39
45701;BMP280;36277;32.852;-116.998;2023-02-28T00:35:04;100447.28;;;24.48
45701;BMP280;36277;32.852;-116.998;2023-02-28T00:37:30;100450.34;;;24.53
45701;BMP280;36277;32.852;-116.998;2023-02-28T00:39:57;100455.31;;;24.57
45701;BMP280;36277;32.852;-116.998;2023-02-28T00:42:24;100451.53;;;24.58
45701;BMP280;36277;32.852;-116.998;2023-02-28T00:44:50;100454.81;;;24.54
45701;BMP280;36277;32.852;-116.998;2023-02-28T00:47:17;100451.03;;;24.55
45701;BMP280;36277;32.852;-116.998;2023-02-28T00:49:43;100449.81;;;24.57
45701;BMP280;36277;32.852;-116.998;2023-02-28T00:52:09;100454.44;;;24.57
45701;BMP280;36277;32.852;-116.998;2023-02-28T00:54:36;100463.78;;;24.56
45701;BMP280;36277;32.852;-116.998;2023-02-28T00:57:02;100470.34;;;24.55
45701;BMP280;36277;32.852;-116.998;2023-02-28T00:59:28;100465.88;;;24.54
45701;BMP280;36277;32.852;-116.998;2023-02-28T01:01:55;100467.97;;;24.52
45701;BMP280;36277;32.852;-116.998;2023-02-28T01:04:21;100475.56;;;24.50
45701;BMP280;36277;32.852;-116.998;2023-02-28T01:06:48;100473.84;;;24.49
45701;BMP280;36277;32.852;-116.998;2023-02-28T01:09:14;100475.06;;;24.46
45701;BMP280;36277;32.852;-116.998;2023-02-28T01:11:41;100473.34;;;24.45
45701;BMP280;36277;32.852;-116.998;2023-02-28T01:14:13;100484.38;;;24.45
45701;BMP280;36277;32.852;-116.998;2023-02-28T01:16:40;100475.63;;;24.42
45701;BMP280;36277;32.852;-116.998;2023-02-28T01:19:07;100473.91;;;24.41
45701;BMP280;36277;32.852;-116.998;2023-02-28T01:21:33;100474.28;;;24.38
45701;BMP280;36277;32.852;-116.998;2023-02-28T01:24:00;100475.31;;;24.37
45701;BMP280;36277;32.852;-116.998;2023-02-28T01:26:27;100479.13;;;24.36
45701;BMP280;36277;32.852;-116.998;2023-02-28T01:28:53;100479.97;;;24.36
45701;BMP280;36277;32.852;-116.998;2023-02-28T01:31:20;100474.47;;;24.36
45701;BMP280;36277;32.852;-116.998;2023-02-28T01:33:47;100475.31;;;24.37
45701;BMP280;36277;32.852;-116.998;2023-02-28T01:36:16;100478.47;;;24.34
45701;BMP280;36277;32.852;-116.998;2023-02-28T01:38:43;100482.25;;;24.33
45701;BMP280;36277;32.852;-116.998;2023-02-28T01:41:19;100493.78;;;24.36
45701;BMP280;36277;32.852;-116.998;2023-02-28T01:46:14;100495.59;;;24.29
45701;BMP280;36277;32.852;-116.998;2023-02-28T01:48:53;100489.88;;;24.31
45701;BMP280;36277;32.852;-116.998;2023-02-28T01:51:49;100501.09;;;24.29
45701;BMP280;36277;32.852;-116.998;2023-02-28T01:54:27;100504.22;;;24.26
45701;BMP280;36277;32.852;-116.998;2023-02-28T01:57:05;100501.47;;;24.26
45701;BMP280;36277;32.852;-116.998;2023-02-28T02:00:08;100499.06;;;24.23
45701;BMP280;36277;32.852;-116.998;2023-02-28T02:02:30;100494.97;;;24.19
45701;BMP280;36277;32.852;-116.998;2023-02-28T02:05:19;100491.84;;;24.22
45701;BMP280;36277;32.852;-116.998;2023-02-28T02:07:49;100488.97;;;24.16
45701;BMP280;36277;32.852;-116.998;2023-02-28T02:10:21;100487.44;;;24.13
45701;BMP280;36277;32.852;-116.998;2023-02-28T02:16:16;100491.44;;;24.11
45701;BMP280;36277;32.852;-116.998;2023-02-28T02:35:47;100480.91;;;23.92
45701;BMP280;36277;32.852;-116.998;2023-02-28T02:41:34;100488.81;;;23.95
45701;BMP280;36277;32.852;-116.998;2023-02-28T02:46:43;100482.44;;;23.95
45701;BMP280;36277;32.852;-116.998;2023-02-28T02:49:21;100488.81;;;23.95
45701;BMP280;36277;32.852;-116.998;2023-02-28T02:51:49;100491.06;;;23.92
45701;BMP280;36277;32.852;-116.998;2023-02-28T02:54:22;100492.41;;;23.96
45701;BMP280;36277;32.852;-116.998;2023-02-28T02:56:50;100491.94;;;23.92
45701;BMP280;36277;32.852;-116.998;2023-02-28T02:59:20;100497.09;;;23.95
45701;BMP280;36277;32.852;-116.998;2023-02-28T03:01:53;100498.28;;;23.93
45701;BMP280;36277;32.852;-116.998;2023-02-28T03:04:24;100492.97;;;23.91
45701;BMP280;36277;32.852;-116.998;2023-02-28T03:06:52;100490.38;;;23.90
45701;BMP280;36277;32.852;-116.998;2023-02-28T03:09:25;100486.78;;;23.89
45701;BMP280;36277;32.852;-116.998;2023-02-28T03:11:55;100488.88;;;23.87
45701;BMP280;36277;32.852;-116.998;2023-02-28T03:20:12;100474.28;;;23.79
45701;BMP280;36277;32.852;-116.998;2023-02-28T03:25:32;100483.94;;;23.75
45701;BMP280;36277;32.852;-116.998;2023-02-28T03:28:26;100487.22;;;23.70
45701;BMP280;36277;32.852;-116.998;2023-02-28T03:34:04;100490.09;;;23.54
45701;BMP280;36277;32.852;-116.998;2023-02-28T03:36:48;100499.72;;;23.58
45701;BMP280;36277;32.852;-116.998;2023-02-28T03:39:22;100499.72;;;23.58
45701;BMP280;36277;32.852;-116.998;2023-02-28T03:42:03;100502.47;;;23.58
45701;BMP280;36277;32.852;-116.998;2023-02-28T03:44:39;100500.94;;;23.56
45701;BMP280;36277;32.852;-116.998;2023-02-28T03:47:16;100506.63;;;23.54
45701;BMP280;36277;32.852;-116.998;2023-02-28T03:49:53;100506.81;;;23.53
45701;BMP280;36277;32.852;-116.998;2023-02-28T03:52:23;100495.63;;;23.46
45701;BMP280;36277;32.852;-116.998;2023-02-28T03:54:55;100499.44;;;23.45
45701;BMP280;36277;32.852;-116.998;2023-02-28T04:00:08;100496.38;;;23.40
45701;BMP280;36277;32.852;-116.998;2023-02-28T04:02:36;100497.94;;;23.35
45701;BMP280;36277;32.852;-116.998;2023-02-28T04:05:03;100503.31;;;23.28
45701;BMP280;36277;32.852;-116.998;2023-02-28T04:07:31;100511.91;;;23.33
45701;BMP280;36277;32.852;-116.998;2023-02-28T04:09:57;100510.91;;;23.26
45701;BMP280;36277;32.852;-116.998;2023-02-28T04:12:24;100500.41;;;23.30
45701;BMP280;36277;32.852;-116.998;2023-02-28T04:14:51;100501.06;;;23.32
45701;BMP280;36277;32.852;-116.998;2023-02-28T04:17:17;100496.59;;;23.31
45701;BMP280;36277;32.852;-116.998;2023-02-28T04:19:44;100501.25;;;23.30
45701;BMP280;36277;32.852;-116.998;2023-02-28T04:22:11;100494.03;;;23.29
45701;BMP280;36277;32.852;-116.998;2023-02-28T04:24:37;100492.31;;;23.28
45701;BMP280;36277;32.852;-116.998;2023-02-28T04:27:08;100493.66;;;23.32
45701;BMP280;36277;32.852;-116.998;2023-02-28T04:29:35;100501.25;;;23.30
45701;BMP280;36277;32.852;-116.998;2023-02-28T04:32:02;100497.81;;;23.28
45701;BMP280;36277;32.852;-116.998;2023-02-28T04:34:30;100500.41;;;23.30
45701;BMP280;36277;32.852;-116.998;2023-02-28T04:36:57;100505.53;;;23.33
45701;BMP280;36277;32.852;-116.998;2023-02-28T04:39:25;100496.59;;;23.31
45701;BMP280;36277;32.852;-116.998;2023-02-28T04:41:52;100504.69;;;23.32
45701;BMP280;36277;32.852;-116.998;2023-02-28T04:44:18;100498.28;;;23.32
45701;BMP280;36277;32.852;-116.998;2023-02-28T04:46:44;100510.19;;;23.32
45701;BMP280;36277;32.852;-116.998;2023-02-28T04:49:11;100502.97;;;23.31
45701;BMP280;36277;32.852;-116.998;2023-02-28T04:51:38;100499.53;;;23.29
45701;BMP280;36277;32.852;-116.998;2023-02-28T04:54:04;100502.97;;;23.31
45701;BMP280;36277;32.852;-116.998;2023-02-28T04:56:31;100499.16;;;23.32
45701;BMP280;36277;32.852;-116.998;2023-02-28T04:58:57;100503.81;;;23.32
45701;BMP280;36277;32.852;-116.998;2023-02-28T05:01:29;100510.19;;;23.32
45701;BMP280;36277;32.852;-116.998;2023-02-28T05:03:57;100507.44;;;23.32
45701;BMP280;36277;32.852;-116.998;2023-02-28T05:06:26;100510.19;;;23.32
45701;BMP280;36277;32.852;-116.998;2023-02-28T05:08:53;100510.19;;;23.32
45701;BMP280;36277;32.852;-116.998;2023-02-28T05:11:21;100523.09;;;23.32
45701;BMP280;36277;32.852;-116.998;2023-02-28T05:13:48;100527.56;;;23.33
45701;BMP280;36277;32.852;-116.998;2023-02-28T05:16:15;100525.84;;;23.32
45701;BMP280;36277;32.852;-116.998;2023-02-28T05:18:41;100527.75;;;23.31
45701;BMP280;36277;32.852;-116.998;2023-02-28T05:21:31;100517.41;;;23.33
45701;BMP280;36277;32.852;-116.998;2023-02-28T05:24:05;100518.13;;;23.27
45701;BMP280;36277;32.852;-116.998;2023-02-28T05:26:37;100529.13;;;23.27
45701;BMP280;36277;32.852;-116.998;2023-02-28T05:29:04;100533.28;;;23.23
45701;BMP280;36277;32.852;-116.998;2023-02-28T05:31:30;100526.94;;;23.23
45701;BMP280;36277;32.852;-116.998;2023-02-28T05:33:57;100529.50;;;23.24
45701;BMP280;36277;32.852;-116.998;2023-02-28T05:36:24;100523.16;;;23.24
45701;BMP280;36277;32.852;-116.998;2023-02-28T05:38:51;100524.00;;;23.24
45701;BMP280;36277;32.852;-116.998;2023-02-28T05:41:18;100527.63;;;23.25
45701;BMP280;36277;32.852;-116.998;2023-02-28T05:43:46;100528.50;;;23.17
45701;BMP280;36277;32.852;-116.998;2023-02-28T05:46:13;100534.88;;;23.18
45701;BMP280;36277;32.852;-116.998;2023-02-28T05:48:41;100539.53;;;23.17
45701;BMP280;36277;32.852;-116.998;2023-02-28T05:51:08;100545.38;;;23.14
45701;BMP280;36277;32.852;-116.998;2023-02-28T05:53:35;100542.78;;;23.13
45701;BMP280;36277;32.852;-116.998;2023-02-28T05:56:01;100544.50;;;23.14
45701;BMP280;36277;32.852;-116.998;2023-02-28T05:58:28;100545.38;;;23.14
45701;BMP280;36277;32.852;-116.998;2023-02-28T06:00:57;100536.94;;;23.16
45701;BMP280;36277;32.852;-116.998;2023-02-28T06:03:24;100538.88;;;23.07
45701;BMP280;36277;32.852;-116.998;2023-02-28T06:05:50;100530.75;;;23.14
45701;BMP280;36277;32.852;-116.998;2023-02-28T06:08:17;100535.91;;;23.09
45701;BMP280;36277;32.852;-116.998;2023-02-28T06:10:44;100540.03;;;23.13
45701;BMP280;36277;32.852;-116.998;2023-02-28T06:13:10;100543.00;;;23.11
45701;BMP280;36277;32.852;-116.998;2023-02-28T06:15:38;100543.00;;;23.11
45701;BMP280;36277;32.852;-116.998;2023-02-28T06:18:05;100546.22;;;23.15
45701;BMP280;36277;32.852;-116.998;2023-02-28T06:20:31;100549.19;;;23.13
45701;BMP280;36277;32.852;-116.998;2023-02-28T06:22:58;100551.25;;;23.11
45701;BMP280;36277;32.852;-116.998;2023-02-28T06:25:27;100554.84;;;23.12
45701;BMP280;36277;32.852;-116.998;2023-02-28T06:27:54;100556.75;;;23.11
45701;BMP280;36277;32.852;-116.998;2023-02-28T06:30:21;100555.19;;;23.09
45701;BMP280;36277;32.852;-116.998;2023-02-28T06:32:52;100550.88;;;23.06
45701;BMP280;36277;32.852;-116.998;2023-02-28T06:35:19;100550.03;;;23.06
45701;BMP280;36277;32.852;-116.998;2023-02-28T06:37:45;100552.63;;;23.07
45701;BMP280;36277;32.852;-116.998;2023-02-28T06:40:13;100546.41;;;23.05
45701;BMP280;36277;32.852;-116.998;2023-02-28T06:42:39;100557.09;;;23.00
45701;BMP280;36277;32.852;-116.998;2023-02-28T06:45:06;100551.22;;;23.03
45701;BMP280;36277;32.852;-116.998;2023-02-28T06:47:36;100548.47;;;23.03
45701;BMP280;36277;32.852;-116.998;2023-02-28T06:50:03;100546.75;;;23.02
45701;BMP280;36277;32.852;-116.998;2023-02-28T06:52:30;100539.53;;;23.01
45701;BMP280;36277;32.852;-116.998;2023-02-28T06:54:56;100550.75;;;22.92
45701;BMP280;36277;32.852;-116.998;2023-02-28T06:57:30;100546.63;;;22.96
45701;BMP280;36277;32.852;-116.998;2023-02-28T06:59:58;100551.94;;;22.98
45701;BMP280;36277;32.852;-116.998;2023-02-28T07:02:25;100547.47;;;22.97
45701;BMP280;36277;32.852;-116.998;2023-02-28T07:04:51;100548.50;;;22.96
45701;BMP280;36277;32.852;-116.998;2023-02-28T07:07:18;100555.91;;;22.95
45701;BMP280;36277;32.852;-116.998;2023-02-28T07:09:44;100547.84;;;22.94
45701;BMP280;36277;32.852;-116.998;2023-02-28T07:12:11;100553.16;;;22.95
45701;BMP280;36277;32.852;-116.998;2023-02-28T07:14:37;100546.13;;;22.93
45701;BMP280;36277;32.852;-116.998;2023-02-28T07:17:03;100553.69;;;22.91
45701;BMP280;36277;32.852;-116.998;2023-02-28T07:19:30;100554.38;;;22.93
45701;BMP280;36277;32.852;-116.998;2023-02-28T07:21:56;100557.28;;;22.91
45701;BMP280;36277;32.852;-116.998;2023-02-28T07:24:22;100548.53;;;22.88
45701;BMP280;36277;32.852;-116.998;2023-02-28T07:26:51;100556.09;;;22.86
45701;BMP280;36277;32.852;-116.998;2023-02-28T07:29:17;100548.88;;;22.85
45701;BMP280;36277;32.852;-116.998;2023-02-28T07:31:43;100543.72;;;22.82
45701;BMP280;36277;32.852;-116.998;2023-02-28T07:34:10;100543.72;;;22.82
45701;BMP280;36277;32.852;-116.998;2023-02-28T07:36:36;100542.00;;;22.81
45701;BMP280;36277;32.852;-116.998;2023-02-28T07:39:02;100542.19;;;22.79
45701;BMP280;36277;32.852;-116.998;2023-02-28T07:41:30;100533.25;;;22.77
45701;BMP280;36277;32.852;-116.998;2023-02-28T07:43:59;100527.91;;;22.76
45701;BMP280;36277;32.852;-116.998;2023-02-28T07:46:26;100535.47;;;22.74
45701;BMP280;36277;32.852;-116.998;2023-02-28T07:48:52;100530.31;;;22.71
45701;BMP280;36277;32.852;-116.998;2023-02-28T07:51:22;100529.28;;;22.72
45701;BMP280;36277;32.852;-116.998;2023-02-28T07:53:48;100526.03;;;22.68
45701;BMP280;36277;32.852;-116.998;2023-02-28T07:56:15;100519.50;;;22.69
45701;BMP280;36277;32.852;-116.998;2023-02-28T07:58:41;100523.47;;;22.67
45701;BMP280;36277;32.852;-116.998;2023-02-28T08:01:09;100506.97;;;22.67
45701;BMP280;36277;32.852;-116.998;2023-02-28T08:03:36;100500.78;;;22.65
45701;BMP280;36277;32.852;-116.998;2023-02-28T08:06:06;100504.56;;;22.64
45701;BMP280;36277;32.852;-116.998;2023-02-28T08:08:33;100507.66;;;22.61
45701;BMP280;36277;32.852;-116.998;2023-02-28T08:11:01;100501.28;;;22.60
45701;BMP280;36277;32.852;-116.998;2023-02-28T08:13:29;100489.44;;;22.60
45701;BMP280;36277;32.852;-116.998;2023-02-28T08:15:55;100498.38;;;22.54
45701;BMP280;36277;32.852;-116.998;2023-02-28T08:18:22;100493.06;;;22.52
45701;BMP280;36277;32.852;-116.998;2023-02-28T08:20:49;100495.13;;;22.50
45701;BMP280;36277;32.852;-116.998;2023-02-28T08:23:15;100505.59;;;22.47
45701;BMP280;36277;32.852;-116.998;2023-02-28T08:25:42;100500.09;;;22.47
45701;BMP280;36277;32.852;-116.998;2023-02-28T08:28:08;100497.34;;;22.47
45701;BMP280;36277;32.852;-116.998;2023-02-28T08:30:34;100489.97;;;22.47
45701;BMP280;36277;32.852;-116.998;2023-02-28T08:33:00;100492.53;;;22.49
45701;BMP280;36277;32.852;-116.998;2023-02-28T08:35:27;100481.72;;;22.47
45701;BMP280;36277;32.852;-116.998;2023-02-28T08:37:53;100481.88;;;22.46
45701;BMP280;36277;32.852;-116.998;2023-02-28T08:40:20;100478.09;;;22.47
45701;BMP280;36277;32.852;-116.998;2023-02-28T08:42:46;100481.88;;;22.46
45701;BMP280;36277;32.852;-116.998;2023-02-28T08:45:14;100478.97;;;22.47
45701;BMP280;36277;32.852;-116.998;2023-02-28T08:47:43;100477.59;;;22.43
45701;BMP280;36277;32.852;-116.998;2023-02-28T08:50:10;100470.38;;;22.42
45701;BMP280;36277;32.852;-116.998;2023-02-28T08:52:36;100475.38;;;22.39
45701;BMP280;36277;32.852;-116.998;2023-02-28T08:55:04;100470.56;;;22.41
45701;BMP280;36277;32.852;-116.998;2023-02-28T08:57:30;100471.41;;;22.41
45701;BMP280;36277;32.852;-116.998;2023-02-28T08:59:56;100468.84;;;22.40
45701;BMP280;36277;32.852;-116.998;2023-02-28T09:02:23;100466.09;;;22.40
45701;BMP280;36277;32.852;-116.998;2023-02-28T09:04:49;100471.59;;;22.40
45701;BMP280;36277;32.852;-116.998;2023-02-28T09:07:15;100469.00;;;22.38
45701;BMP280;36277;32.852;-116.998;2023-02-28T09:09:41;100474.03;;;22.35
45701;BMP280;36277;32.852;-116.998;2023-02-28T09:12:26;100466.44;;;22.37
45701;BMP280;36277;32.852;-116.998;2023-02-28T09:14:53;100473.81;;;22.36
45701;BMP280;36277;32.852;-116.998;2023-02-28T09:17:20;100463.00;;;22.35
45701;BMP280;36277;32.852;-116.998;2023-02-28T09:19:48;100462.28;;;22.33
45701;BMP280;36277;32.852;-116.998;2023-02-28T09:22:14;100466.97;;;22.24
45701;BMP280;36277;32.852;-116.998;2023-02-28T09:24:41;100462.31;;;22.25
45701;BMP280;36277;32.852;-116.998;2023-02-28T09:27:07;100456.81;;;22.25
45701;BMP280;36277;32.852;-116.998;2023-02-28T09:29:34;100459.19;;;22.20
45701;BMP280;36277;32.852;-116.998;2023-02-28T09:32:01;100447.19;;;22.21
45701;BMP280;36277;32.852;-116.998;2023-02-28T09:34:28;100452.00;;;22.19
45701;BMP280;36277;32.852;-116.998;2023-02-28T09:36:56;100446.88;;;22.16
45701;BMP280;36277;32.852;-116.998;2023-02-28T09:39:23;100440.69;;;22.14
45701;BMP280;36277;32.852;-116.998;2023-02-28T09:41:54;100440.50;;;22.15
45701;BMP280;36277;32.852;-116.998;2023-02-28T09:49:42;100418.00;;;22.12
45701;BMP280;36277;32.852;-116.998;2023-02-28T09:52:15;100410.44;;;22.14
45701;BMP280;36277;32.852;-116.998;2023-02-28T09:54:43;100411.81;;;22.10
45701;BMP280;36277;32.852;-116.998;2023-02-28T09:57:31;100411.97;;;22.16
45701;BMP280;36277;32.852;-116.998;2023-02-28T10:08:25;100397.53;;;22.06
45701;BMP280;36277;32.852;-116.998;2023-02-28T10:11:15;100395.47;;;22.08
45701;BMP280;36277;32.852;-116.998;2023-02-28T10:21:40;100387.41;;;22.07
45701;BMP280;36277;32.852;-116.998;2023-02-28T10:24:30;100384.00;;;22.05
45701;BMP280;36277;32.852;-116.998;2023-02-28T10:27:12;100371.63;;;22.01
45701;BMP280;36277;32.852;-116.998;2023-02-28T10:29:43;100370.78;;;22.00
45701;BMP280;36277;32.852;-116.998;2023-02-28T10:32:13;100373.69;;;21.99
45701;BMP280;36277;32.852;-116.998;2023-02-28T10:38:15;100368.88;;;21.93
45701;BMP280;36277;32.852;-116.998;2023-02-28T10:40:42;100369.59;;;21.87
45701;BMP280;36277;32.852;-116.998;2023-02-28T10:56:01;100383.34;;;21.87
45701;BMP280;36277;32.852;-116.998;2023-02-28T11:01:40;100393.47;;;21.79
45701;BMP280;36277;32.852;-116.998;2023-02-28T11:06:45;100392.94;;;21.75
45701;BMP280;36277;32.852;-116.998;2023-02-28T11:09:37;100397.41;;;21.84
45701;BMP280;36277;32.852;-116.998;2023-02-28T11:12:19;100395.53;;;21.77
45701;BMP280;36277;32.852;-116.998;2023-02-28T11:14:58;100396.72;;;21.74
45701;BMP280;36277;32.852;-116.998;2023-02-28T11:17:28;100390.38;;;21.74
45701;BMP280;36277;32.852;-116.998;2023-02-28T11:19:57;100387.78;;;21.72
45701;BMP280;36277;32.852;-116.998;2023-02-28T11:22:28;100382.28;;;21.72
45701;BMP280;36277;32.852;-116.998;2023-02-28T11:25:02;100375.09;;;21.71
45701;BMP280;36277;32.852;-116.998;2023-02-28T11:30:00;100372.69;;;21.68
45701;BMP280;36277;32.852;-116.998;2023-02-28T11:32:28;100377.16;;;21.69
45701;BMP280;36277;32.852;-116.998;2023-02-28T11:37:38;100361.88;;;21.67
45701;BMP280;36277;32.852;-116.998;2023-02-28T11:40:30;100359.81;;;21.69
45701;BMP280;36277;32.852;-116.998;2023-02-28T11:45:57;100357.56;;;21.56
45701;BMP280;36277;32.852;-116.998;2023-02-28T11:56:24;100346.63;;;21.64
45701;BMP280;36277;32.852;-116.998;2023-02-28T12:07:00;100328.91;;;21.51
45701;BMP280;36277;32.852;-116.998;2023-02-28T12:26:19;100342.88;;;22.19
45701;BMP280;36277;32.852;-116.998;2023-02-28T12:28:54;100353.69;;;22.29
45701;BMP280;36277;32.852;-116.998;2023-02-28T12:31:30;100358.31;;;22.36
45701;BMP280;36277;32.852;-116.998;2023-02-28T12:34:05;100359.19;;;22.37
45701;BMP280;36277;32.852;-116.998;2023-02-28T12:36:34;100359.34;;;22.35
45701;BMP280;36277;32.852;-116.998;2023-02-28T12:39:07;100361.41;;;22.33
45701;BMP280;36277;32.852;-116.998;2023-02-28T12:41:47;100345.44;;;22.37
45701;BMP280;36277;32.852;-116.998;2023-02-28T12:44:19;100346.97;;;22.31
45701;BMP280;36277;32.852;-116.998;2023-02-28T12:46:49;100352.47;;;22.31
45701;BMP280;36277;32.852;-116.998;2023-02-28T12:51:50;100353.69;;;22.29
45701;BMP280;36277;32.852;-116.998;2023-02-28T12:59:50;100352.31;;;22.25
45701;BMP280;36277;32.852;-116.998;2023-02-28T13:11:06;100337.06;;;22.06
45701;BMP280;36277;32.852;-116.998;2023-02-28T13:13:32;100336.91;;;22.08
45701;BMP280;36277;32.852;-116.998;2023-02-28T13:18:46;100331.41;;;22.08
45701;BMP280;36277;32.852;-116.998;2023-02-28T13:21:28;100335.06;;;21.92
45701;BMP280;36277;32.852;-116.998;2023-02-28T13:34:32;100327.00;;;21.91
45701;BMP280;36277;32.852;-116.998;2023-02-28T13:47:52;100345.03;;;21.86
45701;BMP280;36277;32.852;-116.998;2023-02-28T13:58:31;100348.84;;;21.77
45701;BMP280;36277;32.852;-116.998;2023-02-28T14:06:37;100338.53;;;21.71
45701;BMP280;36277;32.852;-116.998;2023-02-28T14:09:21;100350.22;;;21.73
45701;BMP280;36277;32.852;-116.998;2023-02-28T14:11:49;100359.63;;;21.70
45701;BMP280;36277;32.852;-116.998;2023-02-28T14:17:14;100361.69;;;21.76
45701;BMP280;36277;32.852;-116.998;2023-02-28T14:19:44;100356.53;;;21.73
45701;BMP280;36277;32.852;-116.998;2023-02-28T14:38:21;100338.69;;;21.69
45701;BMP280;36277;32.852;-116.998;2023-02-28T14:40:52;100347.13;;;21.68
45701;BMP280;36277;32.852;-116.998;2023-02-28T14:43:26;100324.63;;;21.64
45701;BMP280;36277;32.852;-116.998;2023-02-28T14:45:58;100329.59;;;21.69
45701;BMP280;36277;32.852;-116.998;2023-02-28T14:48:25;100320.34;;;21.62
45701;BMP280;36277;32.852;-116.998;2023-02-28T14:51:02;100316.72;;;21.69
45701;BMP280;36277;32.852;-116.998;2023-02-28T14:53:36;100324.97;;;21.61
45701;BMP280;36277;32.852;-116.998;2023-02-28T14:56:03;100318.91;;;21.58
45701;BMP280;36277;32.852;-116.998;2023-02-28T14:58:34;100322.22;;;21.61
45701;BMP280;36277;32.852;-116.998;2023-02-28T15:01:03;100322.94;;;21.63
45701;BMP280;36277;32.852;-116.998;2023-02-28T15:03:37;100329.25;;;21.64
45701;BMP280;36277;32.852;-116.998;2023-02-28T15:06:11;100321.53;;;21.67
45701;BMP280;36277;32.852;-116.998;2023-02-28T15:08:38;100322.59;;;21.66
45701;BMP280;36277;32.852;-116.998;2023-02-28T15:11:05;100332.69;;;21.66
45701;BMP280;36277;32.852;-116.998;2023-02-28T15:13:44;100334.91;;;21.70
45701;BMP280;36277;32.852;-116.998;2023-02-28T15:16:12;100331.66;;;21.67
45701;BMP280;36277;32.852;-116.998;2023-02-28T15:21:18;100331.84;;;21.65
45701;BMP280;36277;32.852;-116.998;2023-02-28T15:26:46;100345.25;;;21.60
45701;BMP280;36277;32.852;-116.998;2023-02-28T15:29:17;100347.59;;;21.55
45701;BMP280;36277;32.852;-116.998;2023-02-28T15:31:49;100351.38;;;21.54
45701;BMP280;36277;32.852;-116.998;2023-02-28T15:34:21;100350.72;;;21.60
45701;BMP280;36277;32.852;-116.998;2023-02-28T15:36:48;100346.72;;;21.55
45701;BMP280;36277;32.852;-116.998;2023-02-28T15:39:24;100353.81;;;21.65
45701;BMP280;36277;32.852;-116.998;2023-02-28T15:42:09;100359.66;;;21.62
45701;BMP280;36277;32.852;-116.998;2023-02-28T15:44:36;100356.91;;;21.62
45701;BMP280;36277;32.852;-116.998;2023-02-28T15:47:14;100360.16;;;21.66
45701;BMP280;36277;32.852;-116.998;2023-02-28T15:49:48;100362.72;;;21.67
45701;BMP280;36277;32.852;-116.998;2023-02-28T15:52:19;100364.44;;;21.68
45701;BMP280;36277;32.852;-116.998;2023-02-28T15:54:47;100377.53;;;21.66
45701;BMP280;36277;32.852;-116.998;2023-02-28T15:57:29;100372.19;;;21.73
45701;BMP280;36277;32.852;-116.998;2023-02-28T16:00:01;100378.03;;;21.70
45701;BMP280;36277;32.852;-116.998;2023-02-28T16:02:35;100385.22;;;21.71
45701;BMP280;36277;32.852;-116.998;2023-02-28T16:07:37;100389.50;;;21.73
45701;BMP280;36277;32.852;-116.998;2023-02-28T16:10:05;100389.16;;;21.76
45701;BMP280;36277;32.852;-116.998;2023-02-28T16:12:34;100389.50;;;21.73
45701;BMP280;36277;32.852;-116.998;2023-02-28T16:15:06;100396.56;;;21.76
45701;BMP280;36277;32.852;-116.998;2023-02-28T16:17:35;100400.00;;;21.78
45701;BMP280;36277;32.852;-116.998;2023-02-28T16:20:12;100413.91;;;21.76
45701;BMP280;36277;32.852;-116.998;2023-02-28T16:22:39;100411.66;;;21.72
45701;BMP280;36277;32.852;-116.998;2023-02-28T16:25:17;100394.66;;;21.76
45701;BMP280;36277;32.852;-116.998;2023-02-28T16:27:47;100393.63;;;21.77
45701;BMP280;36277;32.852;-116.998;2023-02-28T16:30:22;100399.81;;;21.79
45701;BMP280;36277;32.852;-116.998;2023-02-28T16:32:49;100393.81;;;21.76
45701;BMP280;36277;32.852;-116.998;2023-02-28T16:35:17;100401.72;;;21.79
45701;BMP280;36277;32.852;-116.998;2023-02-28T16:37:43;100408.75;;;21.73
45701;BMP280;36277;32.852;-116.998;2023-02-28T16:40:18;100398.97;;;21.79
45701;BMP280;36277;32.852;-116.998;2023-02-28T16:42:49;100411.81;;;21.70
45701;BMP280;36277;32.852;-116.998;2023-02-28T16:45:25;100412.84;;;21.69
45701;BMP280;36277;32.852;-116.998;2023-02-28T16:47:52;100415.78;;;21.68
45701;BMP280;36277;32.852;-116.998;2023-02-28T16:50:24;100410.78;;;21.71
45701;BMP280;36277;32.852;-116.998;2023-02-28T16:52:51;100412.84;;;21.69
45701;BMP280;36277;32.852;-116.998;2023-02-28T16:55:21;100413.03;;;21.68
45701;BMP280;36277;32.852;-116.998;2023-02-28T16:58:00;100421.78;;;21.71
45701;BMP280;36277;32.852;-116.998;2023-02-28T17:00:29;100420.59;;;21.66
45701;BMP280;36277;32.852;-116.998;2023-02-28T17:02:56;100423.69;;;21.63
45701;BMP280;36277;32.852;-116.998;2023-02-28T17:05:23;100418.72;;;21.66